Terminal Aerodrome Forecast
Issued by NWS

Home | Current Version | Previous Version | Text Only | Print | Product List | Glossary On
Versions: 1 2 3 4 5 6 7 8 9 10 11 12 13 14 15 16 17 18 19
000
FTUS45 KGJT 281124
TAFASE
TAF
KASE 281124Z 2812/2912 22006KT P6SM FEW100 SCT250
     FM281500 24003KT P6SM SCT250
     FM281700 33008KT P6SM SCT120 SCT250
     FM290300 22005KT P6SM SCT250
     FM290500 16005KT P6SM SCT250=

USA.gov is the U.S. government's official web portal to all federal, state and local government web resources and services.